This is the latest recevied weather packets stored in our database for station/object KX4KY-13. If no packets are shown the sender has not sent any weather packets the latest 10 day(s).
| Time | Temp. | Humidity | Pressure | Rain* | Wind** | Luminosity | Snow |
|---|---|---|---|---|---|---|---|
| 1777678818 | 13.33° C | 71% | 1012 hPa | 0 mm | - | 24 W/m² | - |
| 1777677018 | 13.89° C | 67% | 1011.7 hPa | 0 mm | - | 44 W/m² | - |
| 1777673417 | 14.44° C | 64% | 1011.9 hPa | 0 mm | - | 114 W/m² | - |
| 1777666818 | 15.56° C | 56% | 1012.4 hPa | 0 mm | - | 469 W/m² | - |
| 1777665618 | 15° C | 59% | 1012.5 hPa | 0 mm | - | 645 W/m² | - |
| 1777660816 | 14.44° C | 58% | 1013.4 hPa | 0 mm | - | 582 W/m² | - |
| 1777659617 | 13.89° C | 60% | 1013.9 hPa | 0 mm | - | 420 W/m² | - |
| 1777656018 | 13.89° C | 54% | 1013.9 hPa | 0 mm | - | 736 W/m² | - |
| 1777654818 | 13.89° C | 54% | 1014.4 hPa | 0 mm | - | 821 W/m² | - |
| 1777653638 | 13.89° C | 53% | 1014.3 hPa | 0 mm | - | 618 W/m² | - |
| 1777651820 | 13.89° C | 51% | 1014.5 hPa | 0 mm | - | 871 W/m² | - |
| 1777651239 | 13.89° C | 52% | 1015.2 hPa | 0 mm | - | 489 W/m² | - |
| 1777649436 | 13.33° C | 51% | 1014.8 hPa | 0 mm | - | 721 W/m² | - |
| 1777648818 | 12.78° C | 52% | 1015.1 hPa | 0 mm | - | 487 W/m² | - |
| 1777645817 | 12.22° C | 54% | 1014.3 hPa | 0 mm | - | 680 W/m² | - |
| 1777645217 | 11.67° C | 56% | 1014 hPa | 0 mm | - | 685 W/m² | - |
| 1777644617 | 11.67° C | 56% | 1013.9 hPa | 0 mm | - | 635 W/m² | - |
| 1777644017 | 11.11° C | 58% | 1014.1 hPa | 0 mm | - | 591 W/m² | - |
| 1777639839 | 10° C | 63% | 1014 hPa | 0 mm | - | 331 W/m² | - |
| 1777638619 | 10.56° C | 63% | 1013.8 hPa | 0 mm | - | 213 W/m² | - |
| 1777632018 | 9.44° C | 61% | 1013.8 hPa | 0 mm | - | 2 W/m² | - |
| 1777630819 | 9.44° C | 60% | 1013.6 hPa | 0 mm | - | 0 W/m² | - |
| 1777626622 | 10° C | 60% | 1013.4 hPa | 0 mm | - | 0 W/m² | - |
| 1777622421 | 11.11° C | 58% | 1012.8 hPa | 0 mm | - | 0 W/m² | - |
| 1777620620 | 11.11° C | 57% | 1012.3 hPa | 0 mm | - | 0 W/m² | - |
* Rain latest hour (hover to see other rain measurements)
** Current wind speed in m/s (hover to see current wind gust speed)